createdAt,value
2023-10-29T00:00:25.421Z,12.15
2023-10-29T00:01:25.519Z,12.12
2023-10-29T00:02:25.476Z,12.13
2023-10-29T00:03:25.568Z,12.12
2023-10-29T00:04:25.381Z,12.10
2023-10-29T00:05:25.397Z,12.12
2023-10-29T00:06:25.343Z,12.10
2023-10-29T00:07:25.353Z,12.10
2023-10-29T00:08:25.328Z,12.10
2023-10-29T00:09:25.364Z,12.10
2023-10-29T00:10:25.326Z,12.10
2023-10-29T00:11:25.329Z,12.10
2023-10-29T00:12:25.270Z,12.13
2023-10-29T00:13:25.308Z,12.10
2023-10-29T00:14:25.266Z,12.12
2023-10-29T00:15:25.239Z,12.10
2023-10-29T00:16:25.246Z,12.09
2023-10-29T00:17:25.265Z,12.10
2023-10-29T00:18:25.310Z,12.10
2023-10-29T00:19:25.377Z,12.09
2023-10-29T00:20:25.222Z,12.12
2023-10-29T00:21:25.184Z,12.07
2023-10-29T00:22:25.192Z,12.07
2023-10-29T00:23:25.198Z,12.06
2023-10-29T00:24:25.160Z,12.06
2023-10-29T00:25:25.182Z,12.07
2023-10-29T00:26:25.149Z,12.03
2023-10-29T00:27:25.142Z,12.00
2023-10-29T00:28:25.174Z,12.00
2023-10-29T00:29:25.169Z,12.02
2023-10-29T00:30:25.130Z,12.02
2023-10-29T00:31:25.095Z,12.02
2023-10-29T00:32:25.139Z,12.00
2023-10-29T00:33:25.142Z,12.03
2023-10-29T00:34:25.051Z,12.04
2023-10-29T00:35:25.084Z,12.03
2023-10-29T00:36:25.073Z,12.04
2023-10-29T00:37:25.003Z,12.03
2023-10-29T00:38:25.043Z,12.03
2023-10-29T00:39:24.988Z,12.03
2023-10-29T00:40:24.988Z,12.02
2023-10-29T00:41:24.979Z,12.02
2023-10-29T00:42:25.000Z,11.99
2023-10-29T00:43:24.947Z,12.00
2023-10-29T00:44:25.004Z,11.99
2023-10-29T00:45:24.942Z,11.99
2023-10-29T00:46:24.929Z,12.02
2023-10-29T00:47:24.988Z,12.03
2023-10-29T00:48:24.953Z,12.02
2023-10-29T00:49:24.880Z,12.03
2023-10-29T00:50:24.949Z,12.04
2023-10-29T00:51:24.865Z,12.06
2023-10-29T00:52:24.863Z,12.07
2023-10-29T00:53:24.869Z,12.07
2023-10-29T00:54:24.839Z,12.10
2023-10-29T00:55:24.811Z,12.07
2023-10-29T00:56:24.874Z,12.07
2023-10-29T00:57:24.797Z,12.07
2023-10-29T00:58:24.827Z,12.07
2023-10-29T00:59:24.781Z,12.07
2023-10-29T01:00:24.803Z,12.07
2023-10-29T01:01:24.768Z,12.07
2023-10-29T01:02:24.811Z,12.07
2023-10-29T01:03:24.896Z,12.09
2023-10-29T01:04:24.734Z,12.07
2023-10-29T01:05:24.991Z,12.10
2023-10-29T01:06:24.797Z,12.10
2023-10-29T01:07:24.680Z,12.09
2023-10-29T01:08:24.760Z,12.10
2023-10-29T01:09:24.661Z,12.12
2023-10-29T01:10:24.680Z,12.10
2023-10-29T01:11:24.715Z,12.12
2023-10-29T01:12:24.651Z,12.12
2023-10-29T01:13:24.625Z,12.12
2023-10-29T01:14:24.639Z,12.10
2023-10-29T01:15:24.599Z,12.10
2023-10-29T01:17:28.537Z,12.10
2023-10-29T01:18:29.507Z,12.07
2023-10-29T01:19:29.436Z,12.10
2023-10-29T01:20:30.141Z,12.07
2023-10-29T01:21:29.436Z,12.12
2023-10-29T01:22:29.433Z,12.10
2023-10-29T01:23:29.468Z,12.09
2023-10-29T01:24:29.367Z,12.07
2023-10-29T01:25:29.382Z,12.09
2023-10-29T01:26:29.368Z,12.07
2023-10-29T01:27:29.355Z,12.04
2023-10-29T01:28:29.392Z,12.04
2023-10-29T01:29:29.397Z,12.03
2023-10-29T01:30:29.306Z,12.03
2023-10-29T01:31:29.341Z,12.06
2023-10-29T01:32:29.347Z,12.06
2023-10-29T01:33:29.341Z,12.06
2023-10-29T01:34:29.309Z,12.04
2023-10-29T01:35:29.410Z,12.03
2023-10-29T01:36:29.259Z,12.03
2023-10-29T01:37:29.271Z,12.02
2023-10-29T01:38:29.258Z,12.03
2023-10-29T01:39:29.223Z,12.04
2023-10-29T01:40:29.207Z,12.06
2023-10-29T01:41:29.287Z,12.03
2023-10-29T01:42:29.173Z,12.02
2023-10-29T01:43:29.196Z,12.02
2023-10-29T01:44:29.199Z,12.03
2023-10-29T01:45:29.222Z,12.04
2023-10-29T01:46:29.126Z,12.06
2023-10-29T01:47:29.238Z,12.03
2023-10-29T01:48:29.160Z,12.00
2023-10-29T01:49:29.114Z,11.99
2023-10-29T01:50:29.095Z,11.97
2023-10-29T01:51:29.100Z,11.99
2023-10-29T01:52:29.097Z,11.99
2023-10-29T01:53:29.106Z,12.00
2023-10-29T01:54:29.058Z,12.00
2023-10-29T01:55:29.129Z,12.03
2023-10-29T01:56:29.051Z,12.03
2023-10-29T01:57:29.054Z,12.03
2023-10-29T01:58:29.004Z,12.04
2023-10-29T01:59:29.044Z,12.04
2023-10-29T02:00:28.985Z,12.06
2023-10-29T02:01:29.101Z,12.07
2023-10-29T02:02:29.006Z,12.07
2023-10-29T02:03:29.141Z,12.07
2023-10-29T02:04:28.954Z,12.09
2023-10-29T02:05:29.003Z,12.09
2023-10-29T02:06:28.920Z,12.12
2023-10-29T02:07:28.945Z,12.13
2023-10-29T02:08:28.904Z,12.10
2023-10-29T02:09:28.901Z,12.10
2023-10-29T02:10:28.880Z,12.09
2023-10-29T02:11:28.886Z,12.10
2023-10-29T02:12:28.856Z,12.09
2023-10-29T02:13:28.891Z,12.07
2023-10-29T02:14:28.887Z,12.07
2023-10-29T02:15:28.834Z,12.07
2023-10-29T02:16:28.810Z,12.07
2023-10-29T02:17:29.024Z,12.04
2023-10-29T02:18:28.875Z,12.03
2023-10-29T02:19:28.808Z,12.02
2023-10-29T02:20:28.803Z,12.02
2023-10-29T02:21:28.776Z,12.02
2023-10-29T02:22:28.747Z,12.03
2023-10-29T02:23:28.774Z,12.02
2023-10-29T02:24:28.728Z,12.03
2023-10-29T02:25:28.794Z,12.02
2023-10-29T02:26:28.714Z,12.04
2023-10-29T02:27:28.713Z,12.03
2023-10-29T02:28:28.693Z,12.04
2023-10-29T02:29:28.729Z,12.03
2023-10-29T07:00:59.970Z,12.09
2023-10-29T07:02:00.954Z,12.09
2023-10-29T07:03:01.106Z,12.09
2023-10-29T07:04:01.126Z,12.09
2023-10-29T07:05:00.906Z,12.07
2023-10-29T07:06:00.952Z,12.07
2023-10-29T07:07:00.892Z,12.09
2023-10-29T07:08:00.905Z,12.09
2023-10-29T07:09:00.901Z,12.09
2023-10-29T07:10:00.930Z,12.10
2023-10-29T07:11:00.848Z,12.09
2023-10-29T07:12:00.875Z,12.09
2023-10-29T07:13:00.827Z,12.10
2023-10-29T07:14:00.844Z,12.10
2023-10-29T07:15:00.847Z,12.13
2023-10-29T07:16:00.986Z,12.12
2023-10-29T07:17:00.804Z,12.15
2023-10-29T07:18:00.904Z,12.13
2023-10-29T07:19:00.783Z,12.13
2023-10-29T07:20:00.773Z,12.15
2023-10-29T07:21:00.796Z,12.15
2023-10-29T07:22:00.781Z,12.15
2023-10-29T07:23:00.713Z,12.15
2023-10-29T07:24:00.737Z,12.17
2023-10-29T07:25:00.701Z,12.17
2023-10-29T07:26:00.701Z,12.18
2023-10-29T07:27:00.718Z,12.18
2023-10-29T07:28:00.703Z,12.18
2023-10-29T07:29:00.648Z,12.18
2023-10-29T07:30:00.745Z,12.20
2023-10-29T07:31:00.620Z,12.18
2023-10-29T07:32:00.675Z,12.21
2023-10-29T07:33:00.681Z,12.21
2023-10-29T07:34:00.647Z,12.21
2023-10-29T07:35:00.590Z,12.21
2023-10-29T07:36:00.614Z,12.24
2023-10-29T07:37:00.573Z,12.24
2023-10-29T07:38:00.566Z,12.27
2023-10-29T07:39:00.555Z,12.28
2023-10-29T07:40:00.561Z,12.28
2023-10-29T07:41:00.521Z,12.31
2023-10-29T07:42:00.557Z,12.29
2023-10-29T07:43:00.512Z,12.32
2023-10-29T07:44:00.507Z,12.36
2023-10-29T07:45:00.588Z,12.32
2023-10-29T07:46:00.503Z,12.37
2023-10-29T07:47:00.449Z,12.37
2023-10-29T07:48:00.558Z,12.39
2023-10-29T07:49:00.442Z,12.42
2023-10-29T07:50:00.438Z,12.40
2023-10-29T07:51:00.486Z,12.45
2023-10-29T07:52:00.410Z,12.43
2023-10-29T07:53:00.396Z,12.46
2023-10-29T07:54:01.352Z,12.45
2023-10-29T07:55:00.369Z,12.46
2023-10-29T07:56:00.368Z,12.47
2023-10-29T07:57:00.390Z,12.49
2023-10-29T07:58:00.350Z,12.50
2023-10-29T07:59:00.334Z,12.54
2023-10-29T08:00:00.435Z,12.53
2023-10-29T08:01:00.322Z,12.54
2023-10-29T08:02:00.306Z,12.57
2023-10-29T08:03:00.422Z,12.57
2023-10-29T08:04:00.382Z,12.58
2023-10-29T08:05:00.254Z,12.60
2023-10-29T08:06:00.302Z,12.62
2023-10-29T08:07:00.249Z,12.64
2023-10-29T08:08:00.259Z,12.64
2023-10-29T08:09:00.295Z,12.67
2023-10-29T08:10:00.226Z,12.65
2023-10-29T08:11:00.198Z,12.65
2023-10-29T08:12:00.269Z,12.68
2023-10-29T08:13:00.169Z,12.68
2023-10-29T08:14:00.217Z,12.68
2023-10-29T08:15:00.308Z,12.70
2023-10-29T08:16:00.267Z,12.68
2023-10-29T08:17:00.124Z,12.72
2023-10-29T08:18:00.205Z,12.68
2023-10-29T08:19:00.106Z,12.72
2023-10-29T08:20:00.242Z,12.73
2023-10-29T08:21:00.106Z,12.73
2023-10-29T08:22:00.099Z,12.76
2023-10-29T08:23:00.059Z,12.78
2023-10-29T08:24:00.130Z,12.76
2023-10-29T08:25:00.038Z,12.78
2023-10-29T08:26:00.086Z,12.78
2023-10-29T08:27:00.064Z,12.79
2023-10-29T08:28:00.043Z,12.79
2023-10-29T08:28:59.993Z,12.79
2023-10-29T08:30:00.030Z,12.83
2023-10-29T08:30:59.976Z,12.82
2023-10-29T08:32:00.002Z,12.83
2023-10-29T08:33:00.026Z,12.85
2023-10-29T08:33:59.958Z,12.87
2023-10-29T08:34:59.955Z,12.87
2023-10-29T08:35:59.934Z,12.90
2023-10-29T08:36:59.922Z,12.91
2023-10-29T08:37:59.915Z,12.91
2023-10-29T08:38:59.984Z,12.94
2023-10-29T08:39:59.883Z,12.97
2023-10-29T08:40:59.865Z,12.98
2023-10-29T08:41:59.940Z,12.98
2023-10-29T08:42:59.881Z,13.01
2023-10-29T08:43:59.844Z,13.01
2023-10-29T08:44:59.939Z,13.04
2023-10-29T08:45:59.946Z,13.04
2023-10-29T08:46:59.821Z,13.08
2023-10-29T08:47:59.891Z,13.09
2023-10-29T08:48:59.816Z,13.11
2023-10-29T08:49:59.783Z,13.12
2023-10-29T08:50:59.804Z,13.12
2023-10-29T08:51:59.766Z,13.16
2023-10-29T08:52:59.736Z,13.16
2023-10-29T08:53:59.773Z,13.18
2023-10-29T08:54:59.741Z,13.19
2023-10-29T08:55:59.713Z,13.20
2023-10-29T08:56:59.708Z,13.22
2023-10-29T08:57:59.690Z,13.23
2023-10-29T08:58:59.661Z,13.23
2023-10-29T08:59:59.689Z,13.23
2023-10-29T09:00:59.703Z,13.23
2023-10-29T09:01:59.644Z,13.23
2023-10-29T09:02:59.683Z,13.25
2023-10-29T09:03:59.735Z,13.27
2023-10-29T09:04:59.604Z,13.28
2023-10-29T09:05:59.655Z,13.28
2023-10-29T09:06:59.594Z,13.28
2023-10-29T09:07:59.585Z,13.27
2023-10-29T09:08:59.597Z,13.27
2023-10-29T09:09:59.569Z,13.30
2023-10-29T09:10:59.539Z,13.30
2023-10-29T09:11:59.616Z,13.31
2023-10-29T09:12:59.520Z,13.30
2023-10-29T09:13:59.538Z,13.31
2023-10-29T09:14:59.517Z,13.30
2023-10-29T09:15:59.531Z,13.35
2023-10-29T09:16:59.498Z,13.30
2023-10-29T09:17:59.671Z,13.35
2023-10-29T09:18:59.445Z,13.33
2023-10-29T09:19:59.454Z,13.33
2023-10-29T09:20:59.463Z,13.33
2023-10-29T09:21:59.428Z,13.35
2023-10-29T09:22:59.410Z,13.35
2023-10-29T09:23:59.494Z,13.37
2023-10-29T09:24:59.377Z,13.37
2023-10-29T09:25:59.401Z,13.38
2023-10-29T09:26:59.369Z,13.38
2023-10-29T09:27:59.359Z,13.38
2023-10-29T09:28:59.342Z,13.38
2023-10-29T09:29:59.454Z,13.39
2023-10-29T09:30:59.317Z,13.42
2023-10-29T09:31:59.319Z,13.41
2023-10-29T09:32:59.333Z,13.42
2023-10-29T09:33:59.298Z,13.44
2023-10-29T09:34:59.273Z,13.44
2023-10-29T09:35:59.310Z,13.46
2023-10-29T09:36:59.252Z,13.46
2023-10-29T09:37:59.265Z,13.46
2023-10-29T09:38:59.245Z,13.47
2023-10-29T09:39:59.232Z,13.47
2023-10-29T09:40:59.264Z,13.49
2023-10-29T09:41:59.227Z,13.47
2023-10-29T09:42:59.191Z,13.50
2023-10-29T09:43:59.198Z,13.50
2023-10-29T09:44:59.241Z,13.50
2023-10-29T09:45:59.177Z,13.53
2023-10-29T09:46:59.170Z,13.53
2023-10-29T09:47:59.229Z,13.53
2023-10-29T09:48:59.142Z,13.53
2023-10-29T09:49:59.205Z,13.56
2023-10-29T09:50:59.146Z,13.54
2023-10-29T09:51:59.130Z,13.54
2023-10-29T09:52:59.161Z,13.56
2023-10-29T09:53:59.539Z,13.56
2023-10-29T09:54:59.184Z,13.56
2023-10-29T09:55:59.057Z,13.54
2023-10-29T09:56:59.067Z,13.57
2023-10-29T09:57:59.064Z,13.59
2023-10-29T09:58:59.040Z,13.57
2023-10-29T09:59:59.047Z,13.56
2023-10-29T10:00:59.008Z,13.59
2023-10-29T10:01:59.244Z,13.59
2023-10-29T10:02:59.157Z,13.60
2023-10-29T10:03:59.182Z,13.60
2023-10-29T10:04:58.947Z,13.60
2023-10-29T10:05:59.017Z,13.62
2023-10-29T10:06:58.935Z,13.60
2023-10-29T10:07:58.946Z,13.62
2023-10-29T10:08:58.993Z,13.60
2023-10-29T10:09:58.973Z,13.63
2023-10-29T10:10:58.880Z,13.65
2023-10-29T10:11:58.902Z,13.63
2023-10-29T10:12:58.858Z,13.63
2023-10-29T10:13:58.862Z,13.62
2023-10-29T10:14:58.867Z,13.60
2023-10-29T10:15:58.922Z,13.65
2023-10-29T10:16:58.812Z,13.67
2023-10-29T10:17:58.885Z,13.67
2023-10-29T10:18:58.795Z,13.67
2023-10-29T10:19:58.801Z,13.65
2023-10-29T10:20:58.799Z,13.67
2023-10-29T10:21:58.823Z,13.67
2023-10-29T10:22:58.762Z,13.70
2023-10-29T10:23:58.784Z,13.67
2023-10-29T10:24:58.740Z,13.70
2023-10-29T10:25:58.726Z,13.72
2023-10-29T10:26:58.749Z,13.72
2023-10-29T10:27:58.742Z,13.74
2023-10-29T10:28:58.683Z,13.75
2023-10-29T10:29:58.721Z,13.78
2023-10-29T10:30:58.665Z,13.79
2023-10-29T10:31:58.691Z,13.83
2023-10-29T10:32:58.716Z,13.83
2023-10-29T10:33:58.632Z,13.86
2023-10-29T10:34:58.664Z,13.89
2023-10-29T10:35:58.636Z,13.90
2023-10-29T10:36:58.615Z,13.93
2023-10-29T10:37:58.592Z,13.93
2023-10-29T10:38:58.631Z,13.95
2023-10-29T10:39:58.573Z,13.96
2023-10-29T10:40:58.580Z,13.97
2023-10-29T10:42:00.583Z,13.97
2023-10-29T10:42:58.559Z,13.97
2023-10-29T10:43:58.522Z,13.97
2023-10-29T10:44:58.596Z,13.99
2023-10-29T10:45:58.530Z,13.97
2023-10-29T10:46:58.516Z,13.96
2023-10-29T10:47:58.526Z,13.97
2023-10-29T10:48:58.486Z,13.97
2023-10-29T10:49:58.458Z,13.96
2023-10-29T10:50:58.534Z,13.97
2023-10-29T10:51:58.431Z,13.95
2023-10-29T10:52:58.445Z,13.93
2023-10-29T10:53:58.441Z,13.95
2023-10-29T10:54:58.420Z,13.92
2023-10-29T10:56:04.068Z,13.92
2023-10-29T10:56:58.463Z,13.93
2023-10-29T10:57:58.370Z,13.92
2023-10-29T10:58:58.381Z,13.92
2023-10-29T10:59:58.371Z,13.92
2023-10-29T11:00:58.357Z,13.90
2023-10-29T11:01:58.372Z,13.92
2023-10-29T11:02:58.581Z,13.90
2023-10-29T11:03:58.418Z,13.90
2023-10-29T11:04:58.379Z,13.90
2023-10-29T11:05:58.325Z,13.87
2023-10-29T11:06:58.288Z,13.86
2023-10-29T11:07:58.290Z,13.87
2023-10-29T11:08:58.281Z,13.83
2023-10-29T11:09:58.238Z,13.83
2023-10-29T11:10:58.489Z,13.79
2023-10-29T11:11:58.238Z,13.79
2023-10-29T11:12:58.220Z,13.79
2023-10-29T11:13:58.234Z,13.78
2023-10-29T11:14:58.219Z,13.79
2023-10-29T11:15:58.237Z,13.78
2023-10-29T11:16:58.270Z,13.81
2023-10-29T11:17:58.234Z,13.79
2023-10-29T11:19:00.023Z,13.83
2023-10-29T11:19:58.147Z,13.83
2023-10-29T11:24:53.936Z,13.78
2023-10-29T11:25:54.890Z,13.78
2023-10-29T11:26:54.905Z,13.77
2023-10-29T11:27:54.905Z,13.77
2023-10-29T11:28:54.919Z,13.77
2023-10-29T11:29:58.667Z,13.78
2023-10-29T11:30:54.826Z,13.78
2023-10-29T11:31:54.898Z,13.77
2023-10-29T11:32:54.831Z,13.78
2023-10-29T11:33:54.808Z,13.77
2023-10-29T11:34:54.782Z,13.77
2023-10-29T11:35:54.825Z,13.78
2023-10-29T11:36:54.777Z,13.78
2023-10-29T11:37:54.808Z,13.78
2023-10-29T11:38:54.753Z,13.81
2023-10-29T11:39:54.741Z,13.79
2023-10-29T11:40:54.766Z,13.83
2023-10-29T11:41:54.746Z,13.81
2023-10-29T11:42:54.703Z,13.81
2023-10-29T11:43:54.712Z,13.81
2023-10-29T11:44:54.707Z,13.79
2023-10-29T11:45:54.697Z,13.79
2023-10-29T11:46:54.659Z,13.79
2023-10-29T11:47:54.731Z,13.77
2023-10-29T11:48:54.636Z,13.77
2023-10-29T11:49:54.627Z,13.72
2023-10-29T11:50:54.623Z,13.74
2023-10-29T11:51:54.629Z,13.75
2023-10-29T11:52:54.589Z,13.72
2023-10-29T11:53:54.686Z,13.72
2023-10-29T11:54:54.566Z,13.70
2023-10-29T11:55:54.575Z,13.71
2023-10-29T11:56:54.572Z,13.72
2023-10-29T11:57:54.565Z,13.70
2023-10-29T11:58:54.537Z,13.68
2023-10-29T11:59:54.642Z,13.70
2023-10-29T12:00:54.498Z,13.68
2023-10-29T12:01:54.502Z,13.67
2023-10-29T12:02:54.583Z,13.68
2023-10-29T12:03:54.618Z,13.67
2023-10-29T12:04:54.512Z,13.67
2023-10-29T12:05:54.676Z,13.68
2023-10-29T12:06:54.434Z,13.68
2023-10-29T12:07:54.446Z,13.71
2023-10-29T12:08:54.440Z,13.68
2023-10-29T12:09:54.416Z,13.67
2023-10-29T12:10:54.416Z,13.68
2023-10-29T12:11:54.477Z,13.67
2023-10-29T12:12:54.385Z,13.67
2023-10-29T12:13:54.376Z,13.67
2023-10-29T12:14:54.378Z,13.65
2023-10-29T12:15:54.353Z,13.63
2023-10-29T12:16:54.390Z,13.63
2023-10-29T12:17:54.596Z,13.60
2023-10-29T12:18:56.183Z,13.60
2023-10-29T12:19:54.316Z,13.60
2023-10-29T12:20:54.350Z,13.57
2023-10-29T12:21:54.321Z,13.57
2023-10-29T12:22:54.272Z,13.57
2023-10-29T12:23:54.296Z,13.56
2023-10-29T12:24:54.272Z,13.56
2023-10-29T12:25:54.263Z,13.57
2023-10-29T12:26:54.235Z,13.59
2023-10-29T12:27:54.224Z,13.57
2023-10-29T12:28:54.203Z,13.56
2023-10-29T12:29:54.306Z,13.54
2023-10-29T12:30:54.207Z,13.53
2023-10-29T12:31:54.195Z,13.52
2023-10-29T12:32:54.279Z,13.50
2023-10-29T12:33:54.168Z,13.52
2023-10-29T12:34:54.137Z,13.49
2023-10-29T12:35:54.176Z,13.50
2023-10-29T12:36:54.668Z,13.47
2023-10-29T12:37:54.122Z,13.47
2023-10-29T12:38:54.102Z,13.47
2023-10-29T12:39:54.108Z,13.44
2023-10-29T12:40:54.096Z,13.42
2023-10-29T12:41:54.143Z,13.42
2023-10-29T12:42:54.243Z,13.41
2023-10-29T12:43:54.054Z,13.39
2023-10-29T12:44:54.097Z,13.41
2023-10-29T12:45:54.042Z,13.39
2023-10-29T12:46:54.046Z,13.42
2023-10-29T12:47:54.094Z,13.41
2023-10-29T12:48:53.994Z,13.39
2023-10-29T12:49:54.006Z,13.39
2023-10-29T12:50:54.000Z,13.39
2023-10-29T12:51:53.996Z,13.38
2023-10-29T12:52:53.986Z,13.37
2023-10-29T12:53:54.004Z,13.37
2023-10-29T12:54:53.930Z,13.37
2023-10-29T12:55:53.942Z,13.35
2023-10-29T12:56:54.111Z,13.35
2023-10-29T12:57:53.919Z,13.33
2023-10-29T12:58:53.906Z,13.30
2023-10-29T12:59:53.920Z,13.30
2023-10-29T13:00:56.974Z,13.27
2023-10-29T13:01:54.014Z,13.25
2023-10-29T13:02:53.939Z,13.23
2023-10-29T13:03:53.951Z,13.22
2023-10-29T13:04:53.853Z,13.20
2023-10-29T13:05:53.861Z,13.20
2023-10-29T13:06:53.807Z,13.20
2023-10-29T13:07:53.807Z,13.20
2023-10-29T13:08:53.797Z,13.22
2023-10-29T13:09:53.798Z,13.20
2023-10-29T13:10:53.761Z,13.20
2023-10-29T13:11:53.850Z,13.20
2023-10-29T13:12:53.737Z,13.20
2023-10-29T13:14:08.367Z,13.20
2023-10-29T13:14:53.738Z,13.22
2023-10-29T13:15:53.774Z,13.20
2023-10-29T13:16:53.737Z,13.20
2023-10-29T13:17:53.747Z,13.19
2023-10-29T13:18:53.734Z,13.18
2023-10-29T13:19:53.676Z,13.15
2023-10-29T13:20:53.660Z,13.15
2023-10-29T13:21:53.981Z,13.12
2023-10-29T13:22:53.634Z,13.13
2023-10-29T13:23:53.656Z,13.13
2023-10-29T13:24:53.602Z,13.13
2023-10-29T13:25:53.609Z,13.15
2023-10-29T13:26:53.699Z,13.13
2023-10-29T13:27:53.626Z,13.13
2023-10-29T13:28:53.561Z,13.13
2023-10-29T13:29:53.610Z,13.12
2023-10-29T13:43:42.050Z,13.09
2023-10-29T13:44:43.092Z,13.05
2023-10-29T13:45:43.008Z,13.05
2023-10-29T13:46:43.072Z,13.04
2023-10-29T13:47:43.000Z,13.03
2023-10-29T13:48:43.010Z,13.03
2023-10-29T13:49:42.971Z,13.01
2023-10-29T13:50:43.022Z,13.03
2023-10-29T13:51:42.959Z,13.03
2023-10-29T13:52:42.954Z,13.03
2023-10-29T13:53:42.923Z,13.03
2023-10-29T13:54:42.924Z,13.01
2023-10-29T13:55:42.920Z,12.98
2023-10-29T13:56:42.944Z,13.00
2023-10-29T13:57:42.875Z,12.98
2023-10-29T13:58:42.897Z,13.00
2023-10-29T13:59:42.851Z,12.98
2023-10-29T14:00:42.970Z,12.98
2023-10-29T14:01:42.834Z,13.00
2023-10-29T14:02:43.101Z,13.00
2023-10-29T14:03:42.932Z,13.01
2023-10-29T14:04:42.818Z,12.98
2023-10-29T14:05:42.809Z,12.95
2023-10-29T14:06:42.796Z,12.97
2023-10-29T14:07:42.787Z,12.97
2023-10-29T14:08:42.815Z,12.98
2023-10-29T14:09:42.744Z,13.00
2023-10-29T14:10:42.757Z,12.97
2023-10-29T14:11:42.727Z,12.97
2023-10-29T14:12:42.742Z,12.97
2023-10-29T14:13:44.989Z,12.95
2023-10-29T14:14:42.755Z,12.97
2023-10-29T14:15:42.686Z,12.97
2023-10-29T14:16:42.738Z,12.95
2023-10-29T14:17:42.667Z,12.97
2023-10-29T14:18:42.705Z,12.97
2023-10-29T14:19:42.636Z,12.97
2023-10-29T14:20:42.659Z,12.97
2023-10-29T14:21:42.690Z,12.97
2023-10-29T14:22:42.653Z,12.95
2023-10-29T14:23:42.644Z,12.97
2023-10-29T14:24:42.609Z,13.00
2023-10-29T14:25:42.591Z,12.98
2023-10-29T14:26:42.580Z,12.98
2023-10-29T14:27:42.556Z,12.98
2023-10-29T14:28:42.601Z,12.98
2023-10-29T14:29:42.563Z,13.00
2023-10-29T14:30:42.671Z,12.98
2023-10-29T14:31:42.618Z,12.97
2023-10-29T14:32:42.548Z,12.98
2023-10-29T14:33:42.530Z,12.98
2023-10-29T14:34:42.484Z,12.98
2023-10-29T14:35:42.461Z,12.98
2023-10-29T14:36:42.470Z,12.97
2023-10-29T14:37:42.459Z,12.98
2023-10-29T14:38:42.461Z,12.97
2023-10-29T14:39:42.441Z,12.98
2023-10-29T14:40:42.424Z,12.98
2023-10-29T14:41:42.712Z,12.97
2023-10-29T14:42:44.996Z,12.95
2023-10-29T14:43:42.376Z,12.98
2023-10-29T14:44:42.411Z,12.98
2023-10-29T14:45:42.363Z,12.98
2023-10-29T14:46:42.416Z,12.98
2023-10-29T14:47:42.396Z,13.01
2023-10-29T14:48:42.408Z,13.00
2023-10-29T14:49:42.307Z,12.98
2023-10-29T14:50:42.312Z,12.97
2023-10-29T14:51:42.291Z,12.98
2023-10-29T14:52:42.292Z,13.00
2023-10-29T14:53:42.286Z,12.98
2023-10-29T14:54:42.302Z,13.00
2023-10-29T14:55:42.254Z,13.00
2023-10-29T14:56:42.244Z,12.98
2023-10-29T14:57:42.245Z,12.98
2023-10-29T14:58:42.236Z,12.95
2023-10-29T14:59:42.244Z,12.95
2023-10-29T15:00:42.217Z,12.95
2023-10-29T15:01:42.187Z,12.97
2023-10-29T15:02:42.195Z,12.95
2023-10-29T15:03:42.246Z,12.98
2023-10-29T15:04:42.162Z,12.98
2023-10-29T15:05:42.156Z,12.98
2023-10-29T15:06:42.629Z,12.98
2023-10-29T15:07:42.125Z,12.97
2023-10-29T15:08:42.114Z,12.98
2023-10-29T15:09:42.093Z,12.97
2023-10-29T15:10:42.101Z,12.97
2023-10-29T15:11:42.085Z,12.98
2023-10-29T15:12:42.064Z,12.97
2023-10-29T15:13:46.338Z,12.95
2023-10-29T15:14:42.058Z,12.98
2023-10-29T15:15:42.082Z,12.95
2023-10-29T15:16:42.039Z,12.95
2023-10-29T15:17:42.066Z,12.97
2023-10-29T15:18:42.084Z,12.95
2023-10-29T15:19:42.036Z,12.95
2023-10-29T15:20:54.516Z,12.97
2023-10-29T15:21:41.983Z,12.95
2023-10-29T15:22:41.959Z,12.97
2023-10-29T15:23:41.941Z,12.98
2023-10-29T15:24:41.946Z,12.98
2023-10-29T15:25:41.963Z,12.97
2023-10-29T15:26:41.927Z,13.00
2023-10-29T15:27:41.906Z,13.03
2023-10-29T15:28:41.902Z,12.98
2023-10-29T15:29:41.870Z,12.97
2023-10-29T15:30:41.960Z,12.98
2023-10-29T15:31:41.868Z,13.00
2023-10-29T15:32:41.968Z,12.97
2023-10-29T15:33:41.863Z,12.98
2023-10-29T15:34:41.860Z,13.00
2023-10-29T15:35:41.810Z,12.97
2023-10-29T15:36:41.806Z,12.97
2023-10-29T15:37:41.803Z,12.97
2023-10-29T15:38:41.820Z,12.97
2023-10-29T15:39:41.963Z,12.98
2023-10-29T15:40:41.889Z,12.94
2023-10-29T15:41:41.743Z,12.95
2023-10-29T15:42:41.736Z,12.95
2023-10-29T15:43:41.905Z,12.95
2023-10-29T15:44:41.833Z,12.95
2023-10-29T15:45:41.772Z,12.94
2023-10-29T15:46:41.714Z,12.94
2023-10-29T15:47:41.783Z,12.95
2023-10-29T15:48:41.815Z,12.95
2023-10-29T15:49:41.684Z,12.94
2023-10-29T15:50:41.668Z,12.94
2023-10-29T15:51:41.672Z,12.93
2023-10-29T15:52:41.647Z,12.93
2023-10-29T15:53:41.645Z,12.91
2023-10-29T15:54:41.610Z,12.91
2023-10-29T15:55:41.629Z,12.91
2023-10-29T15:56:42.966Z,12.91
2023-10-29T15:57:41.654Z,12.91
2023-10-29T15:58:41.561Z,12.90
2023-10-29T15:59:41.576Z,12.91
2023-10-29T16:00:41.544Z,12.91
2023-10-29T16:01:41.534Z,12.93
2023-10-29T16:02:41.587Z,12.90
2023-10-29T16:03:41.591Z,12.91
2023-10-29T16:04:41.496Z,12.87
2023-10-29T16:05:41.492Z,12.90
2023-10-29T16:06:41.473Z,12.90
2023-10-29T16:07:41.475Z,12.87
2023-10-29T16:08:41.446Z,12.86
2023-10-29T16:09:41.512Z,12.90
2023-10-29T16:10:41.433Z,12.86
2023-10-29T16:11:41.425Z,12.85
2023-10-29T16:12:41.421Z,12.83
2023-10-29T16:13:41.405Z,12.85
2023-10-29T16:14:41.380Z,12.85
2023-10-29T16:15:41.468Z,12.83
2023-10-29T16:16:41.372Z,12.82
2023-10-29T16:17:41.393Z,12.80
2023-10-29T16:18:41.375Z,12.80
2023-10-29T16:19:41.344Z,12.82
2023-10-29T16:20:41.311Z,12.82
2023-10-29T16:21:41.331Z,12.82
2023-10-29T16:22:41.296Z,12.82
2023-10-29T16:23:41.294Z,12.82
2023-10-29T16:24:41.270Z,12.83
2023-10-29T16:25:41.267Z,12.82
2023-10-29T16:26:41.322Z,12.82
2023-10-29T16:27:41.363Z,12.83
2023-10-29T16:28:41.279Z,12.82
2023-10-29T16:29:41.303Z,12.80
2023-10-29T16:30:41.255Z,12.82
2023-10-29T16:31:41.270Z,12.82
2023-10-29T16:32:41.309Z,12.82
2023-10-29T16:33:41.464Z,12.82
2023-10-29T16:34:41.214Z,12.79
2023-10-29T16:35:41.217Z,12.80
2023-10-29T16:36:41.189Z,12.80
2023-10-29T16:37:41.196Z,12.80
2023-10-29T16:38:41.183Z,12.80
2023-10-29T16:39:41.212Z,12.78
2023-10-29T16:40:41.144Z,12.80
2023-10-29T16:41:41.148Z,12.79
2023-10-29T16:42:41.196Z,12.79
2023-10-29T16:43:41.160Z,12.79
2023-10-29T16:44:41.127Z,12.76
2023-10-29T16:45:41.150Z,12.78
2023-10-29T16:46:41.101Z,12.76
2023-10-29T16:47:41.169Z,12.76
2023-10-29T16:48:41.156Z,12.78
2023-10-29T16:49:41.112Z,12.76
2023-10-29T16:50:52.328Z,12.76
2023-10-29T16:51:41.143Z,12.73
2023-10-29T16:52:41.012Z,12.76
2023-10-29T16:53:41.026Z,12.75
2023-10-29T16:54:41.038Z,12.75
2023-10-29T16:55:41.023Z,12.70
2023-10-29T16:56:40.977Z,12.70
2023-10-29T16:57:40.988Z,12.70
2023-10-29T16:58:40.970Z,12.65
2023-10-29T16:59:41.530Z,12.68
2023-10-29T17:00:40.939Z,12.67
2023-10-29T17:01:40.976Z,12.68
2023-10-29T17:02:40.987Z,12.70
2023-10-29T17:03:41.011Z,12.68
2023-10-29T17:04:40.890Z,12.67
2023-10-29T17:05:40.903Z,12.67
2023-10-29T17:06:40.884Z,12.67
2023-10-29T17:07:40.868Z,12.67
2023-10-29T17:08:40.864Z,12.67
2023-10-29T17:09:40.880Z,12.67
2023-10-29T17:10:40.821Z,12.65
2023-10-29T17:11:40.870Z,12.65
2023-10-29T17:12:40.803Z,12.67
2023-10-29T17:13:40.805Z,12.65
2023-10-29T17:14:40.809Z,12.65
2023-10-29T17:15:40.869Z,12.64
2023-10-29T17:16:40.765Z,12.62
2023-10-29T17:17:40.824Z,12.64
2023-10-29T17:18:40.868Z,12.64
2023-10-29T17:19:40.740Z,12.64
2023-10-29T17:20:40.712Z,12.65
2023-10-29T17:21:40.871Z,12.62
2023-10-29T17:22:40.704Z,12.64
2023-10-29T17:23:40.748Z,12.62
2023-10-29T17:24:40.712Z,12.62
2023-10-29T17:25:40.687Z,12.62
2023-10-29T17:26:40.676Z,12.62
2023-10-29T17:27:40.664Z,12.61
2023-10-29T17:28:40.640Z,12.62
2023-10-29T17:29:40.673Z,12.61
2023-10-29T17:30:40.626Z,12.62
2023-10-29T17:31:40.630Z,12.61
2023-10-29T17:32:40.632Z,12.62
2023-10-29T17:33:40.610Z,12.60
2023-10-29T17:34:40.596Z,12.57
2023-10-29T17:35:40.576Z,12.57
2023-10-29T17:36:40.539Z,12.58
2023-10-29T17:37:40.554Z,12.57
2023-10-29T17:38:40.516Z,12.57
2023-10-29T17:39:40.537Z,12.58
2023-10-29T17:40:40.519Z,12.58